Time;durP1;ratioP1;P1;durP2;ratioP2;P2;SDS_P1;SDS_P2;PMS_P1;PMS_P2;Temp;Humidity;BMP_temperature;BMP_pressure;BME280_temperature;BME280_humidity;BME280_pressure;Samples;Min_cycle;Max_cycle;Signal;HPM_P1;HPM_P2
2022/01/18 00:01:34;;;;;;;44.60;6.10;;;;;;;;;;4949909;28;106186;-68
2022/01/18 00:04:00;;;;;;;45.42;6.30;;;;;;;;;;4953084;28;106778;-68
2022/01/18 00:06:27;;;;;;;58.72;7.78;;;;;;;;;;4956154;28;107938;-68
2022/01/18 00:08:54;;;;;;;45.85;6.75;;;;;;;;;;4954459;28;105994;-67
2022/01/18 00:11:23;;;;;;;45.40;6.32;;;;;;;;;;4943319;28;108165;-68
2022/01/18 00:13:57;;;;;;;58.92;7.03;;;;;;;;;;4945032;28;107949;-69
2022/01/18 00:16:40;;;;;;;57.17;7.70;;;;;;;;;;4941535;28;106495;-68
2022/01/18 00:19:10;;;;;;;55.70;6.40;;;;;;;;;;4926697;28;108833;-71
2022/01/18 00:24:15;;;;;;;60.67;7.20;;;;;;;;;;4939380;28;106248;-71
2022/01/18 00:26:41;;;;;;;47.88;6.95;;;;;;;;;;4939088;28;106480;-67
2022/01/18 00:29:11;;;;;;;60.53;7.20;;;;;;;;;;4929165;28;107276;-69
2022/01/18 00:31:47;;;;;;;79.25;7.68;;;;;;;;;;4935763;28;106374;-70
2022/01/18 00:39:14;;;;;;;58.13;6.90;;;;;;;;;;4946888;28;106176;-67
2022/01/18 00:41:41;;;;;;;49.30;5.88;;;;;;;;;;4960298;28;105746;-68
2022/01/18 00:44:08;;;;;;;50.70;7.20;;;;;;;;;;4940113;28;107097;-70
2022/01/18 00:46:36;;;;;;;34.88;5.65;;;;;;;;;;4929542;28;106645;-68
2022/01/18 00:49:03;;;;;;;29.55;5.68;;;;;;;;;;4931602;28;106170;-67
2022/01/18 00:51:30;;;;;;;34.95;6.00;;;;;;;;;;4943128;28;108780;-67
2022/01/18 00:53:58;;;;;;;76.45;6.72;;;;;;;;;;4932869;28;106412;-67
2022/01/18 00:56:28;;;;;;;24.60;5.70;;;;;;;;;;4923774;28;105922;-67
2022/01/18 00:58:55;;;;;;;20.75;5.20;;;;;;;;;;4929636;28;106832;-67
2022/01/18 01:01:23;;;;;;;27.33;5.65;;;;;;;;;;4933817;28;107467;-67
2022/01/18 01:03:50;;;;;;;33.88;5.20;;;;;;;;;;4926631;28;106930;-67
2022/01/18 01:06:17;;;;;;;21.33;5.38;;;;;;;;;;4945673;28;107745;-68
2022/01/18 01:08:43;;;;;;;23.15;5.15;;;;;;;;;;4932343;28;107504;-67
2022/01/18 01:11:10;;;;;;;25.50;4.97;;;;;;;;;;4932802;28;106248;-68
2022/01/18 01:13:38;;;;;;;17.42;5.05;;;;;;;;;;4949201;28;106679;-68
2022/01/18 01:16:34;;;;;;;14.35;4.50;;;;;;;;;;4930435;28;106424;-67
2022/01/18 01:33:14;;;;;;;23.30;5.65;;;;;;;;;;4929818;28;107114;-67
2022/01/18 01:36:05;;;;;;;137.18;8.77;;;;;;;;;;4923672;28;106520;-66
2022/01/18 01:44:05;;;;;;;151.75;9.55;;;;;;;;;;4928540;28;106417;-66
2022/01/18 01:46:33;;;;;;;121.35;9.27;;;;;;;;;;4925329;28;106282;-66
2022/01/18 01:49:01;;;;;;;57.58;7.00;;;;;;;;;;4925509;28;107345;-65
2022/01/18 01:51:31;;;;;;;110.82;8.80;;;;;;;;;;4927605;28;107309;-67
2022/01/18 01:53:57;;;;;;;;;;;;;;;;;;4928931;28;106622;-67
2022/01/18 01:56:24;;;;;;;81.05;7.53;;;;;;;;;;4916243;28;136949;-68
2022/01/18 01:58:50;;;;;;;59.08;6.75;;;;;;;;;;4928310;28;106180;-67
2022/01/18 02:01:17;;;;;;;67.57;8.95;;;;;;;;;;4931276;28;107308;-67
2022/01/18 02:03:43;;;;;;;94.20;7.22;;;;;;;;;;4931833;28;106502;-67
2022/01/18 02:06:10;;;;;;;85.53;6.53;;;;;;;;;;4938303;28;107367;-67
2022/01/18 02:08:37;;;;;;;67.82;6.88;;;;;;;;;;4934686;28;106914;-66
2022/01/18 02:11:03;;;;;;;61.40;5.68;;;;;;;;;;4931261;28;105581;-67
2022/01/18 02:13:32;;;;;;;105.50;9.15;;;;;;;;;;4941352;28;106821;-67
2022/01/18 02:16:14;;;;;;;48.72;6.07;;;;;;;;;;4952055;28;107409;-68
2022/01/18 02:24:11;;;;;;;36.25;6.25;;;;;;;;;;4956154;28;106488;-67
2022/01/18 02:26:38;;;;;;;39.50;6.03;;;;;;;;;;4956628;28;107002;-67
2022/01/18 02:29:06;;;;;;;86.90;7.47;;;;;;;;;;4955046;28;108235;-67
2022/01/18 02:31:33;;;;;;;62.90;7.88;;;;;;;;;;4928374;28;107643;-66
2022/01/18 02:34:10;;;;;;;23.15;6.25;;;;;;;;;;4948791;28;107029;-67
2022/01/18 02:36:37;;;;;;;45.63;7.65;;;;;;;;;;4954981;28;106305;-66
2022/01/18 02:39:04;;;;;;;30.52;7.00;;;;;;;;;;4956929;28;106972;-66
2022/01/18 02:41:31;;;;;;;76.20;10.45;;;;;;;;;;4964150;28;107090;-67
2022/01/18 02:43:59;;;;;;;141.55;9.70;;;;;;;;;;4954603;28;106582;-66
2022/01/18 02:46:27;;;;;;;121.35;10.18;;;;;;;;;;4963387;28;106121;-67
2022/01/18 02:48:57;;;;;;;95.80;9.05;;;;;;;;;;4955454;28;107083;-67
2022/01/18 02:51:24;;;;;;;87.00;8.07;;;;;;;;;;4955967;28;106335;-68
2022/01/18 02:53:55;;;;;;;62.67;8.07;;;;;;;;;;4959818;28;106105;-67
2022/01/18 02:56:23;;;;;;;79.10;8.57;;;;;;;;;;4961652;28;106418;-67
2022/01/18 02:58:50;;;;;;;168.48;10.05;;;;;;;;;;4956394;28;106503;-67
2022/01/18 03:04:01;;;;;;;122.15;8.82;;;;;;;;;;4949656;28;107444;-67
2022/01/18 03:06:28;;;;;;;104.88;9.15;;;;;;;;;;4946994;28;105999;-66
2022/01/18 03:08:54;;;;;;;134.40;10.73;;;;;;;;;;4950947;28;107583;-66
2022/01/18 03:11:20;;;;;;;113.82;9.18;;;;;;;;;;4950706;28;106622;-68
2022/01/18 03:13:47;;;;;;;117.72;10.07;;;;;;;;;;4950454;28;107061;-66
2022/01/18 03:16:13;;;;;;;111.13;8.90;;;;;;;;;;4953274;28;106444;-68
2022/01/18 03:18:40;;;;;;;56.25;7.93;;;;;;;;;;4933051;28;106346;-67
2022/01/18 03:21:07;;;;;;;82.05;8.60;;;;;;;;;;4949635;28;106408;-68
2022/01/18 03:23:33;;;;;;;80.35;8.82;;;;;;;;;;4947351;28;106743;-68
2022/01/18 03:26:02;;;;;;;88.05;10.25;;;;;;;;;;4950754;28;107705;-69
2022/01/18 03:28:28;;;;;;;134.82;9.15;;;;;;;;;;4950479;28;107496;-68
2022/01/18 03:30:57;;;;;;;157.75;11.38;;;;;;;;;;4950073;28;107168;-68
2022/01/18 03:33:28;;;;;;;59.13;8.50;;;;;;;;;;4949661;28;106692;-68
2022/01/18 03:35:54;;;;;;;;;;;;;;;;;;4949204;28;106588;-68
2022/01/18 03:38:21;;;;;;;72.43;9.02;;;;;;;;;;4948981;28;122649;-68
2022/01/18 03:40:48;;;;;;;111.38;9.15;;;;;;;;;;4935595;28;108362;-67
2022/01/18 03:43:14;;;;;;;44.08;7.68;;;;;;;;;;4949429;28;107520;-68
2022/01/18 03:45:43;;;;;;;108.70;9.73;;;;;;;;;;4951033;28;105888;-68
2022/01/18 03:48:26;;;;;;;122.65;10.20;;;;;;;;;;4946402;28;108051;-69
2022/01/18 03:50:52;;;;;;;85.45;9.07;;;;;;;;;;4943198;28;109213;-68
2022/01/18 03:53:20;;;;;;;115.82;10.60;;;;;;;;;;4949691;28;106388;-68
2022/01/18 03:55:47;;;;;;;137.25;12.25;;;;;;;;;;4945639;28;106775;-67
2022/01/18 03:58:13;;;;;;;136.75;12.40;;;;;;;;;;4935940;28;107631;-70
2022/01/18 04:00:40;;;;;;;125.32;10.80;;;;;;;;;;4948697;28;106865;-68
2022/01/18 04:03:07;;;;;;;156.27;12.23;;;;;;;;;;4949892;28;106797;-67
2022/01/18 04:05:34;;;;;;;143.38;11.27;;;;;;;;;;4948429;28;107403;-68
2022/01/18 04:08:01;;;;;;;266.70;16.20;;;;;;;;;;4949998;28;106727;-67
2022/01/18 04:10:27;;;;;;;134.02;10.82;;;;;;;;;;4949355;28;107473;-69
2022/01/18 04:12:56;;;;;;;118.25;11.02;;;;;;;;;;4949645;28;106329;-66
2022/01/18 04:15:23;;;;;;;148.13;10.73;;;;;;;;;;4946713;28;107528;-66
2022/01/18 04:18:07;;;;;;;143.05;12.75;;;;;;;;;;4951160;28;107129;-67
2022/01/18 04:26:56;;;;;;;165.68;13.45;;;;;;;;;;4948368;28;107456;-69
2022/01/18 04:28:50;;;;;;;97.93;9.90;;;;;;;;;;4948075;28;106186;-67
2022/01/18 04:31:17;;;;;;;102.38;10.45;;;;;;;;;;4948271;28;107744;-67
2022/01/18 04:33:44;;;;;;;87.20;11.43;;;;;;;;;;4931286;28;106905;-68
2022/01/18 04:36:10;;;;;;;60.35;9.30;;;;;;;;;;4947432;28;106631;-68
2022/01/18 04:38:37;;;;;;;96.60;9.75;;;;;;;;;;4947589;28;106750;-66
2022/01/18 04:41:07;;;;;;;62.70;9.52;;;;;;;;;;4949029;28;107372;-67
2022/01/18 04:44:11;;;;;;;96.00;9.98;;;;;;;;;;4951943;28;106698;-67
2022/01/18 04:49:23;;;;;;;149.93;12.32;;;;;;;;;;4947832;28;107183;-67
2022/01/18 04:51:49;;;;;;;147.07;13.23;;;;;;;;;;4935585;28;107610;-68
2022/01/18 04:54:16;;;;;;;166.68;12.90;;;;;;;;;;4948764;28;106452;-68
2022/01/18 04:59:10;;;;;;;124.47;11.10;;;;;;;;;;4948285;28;106505;-68
2022/01/18 05:01:38;;;;;;;71.60;9.68;;;;;;;;;;4961246;28;106036;-68
2022/01/18 05:04:04;;;;;;;70.18;11.48;;;;;;;;;;4958827;28;107372;-68
2022/01/18 05:06:31;;;;;;;114.93;10.25;;;;;;;;;;4966341;28;107388;-68
2022/01/18 05:09:00;;;;;;;94.95;10.90;;;;;;;;;;4962755;28;107665;-68
2022/01/18 05:11:31;;;;;;;;;;;;;;;;;;4935650;28;107619;-68
2022/01/18 05:14:17;;;;;;;160.13;13.70;;;;;;;;;;4958999;28;123049;-68
2022/01/18 05:16:52;;;;;;;153.70;11.25;;;;;;;;;;4942055;28;107496;-68
2022/01/18 05:19:41;;;;;;;113.38;11.82;;;;;;;;;;4957253;28;107676;-68
2022/01/18 05:24:53;;;;;;;122.57;13.27;;;;;;;;;;4946778;28;108509;-68
2022/01/18 05:27:19;;;;;;;137.10;13.27;;;;;;;;;;4956981;28;107947;-68
2022/01/18 05:29:45;;;;;;;150.52;13.07;;;;;;;;;;4954345;28;106455;-68
2022/01/18 05:32:13;;;;;;;147.98;12.75;;;;;;;;;;4956512;28;108068;-68
2022/01/18 05:34:44;;;;;;;139.38;11.13;;;;;;;;;;4957822;28;106069;-70
2022/01/18 05:37:11;;;;;;;135.60;11.82;;;;;;;;;;4950754;28;106760;-70
2022/01/18 05:39:37;;;;;;;169.32;12.48;;;;;;;;;;4920908;28;108788;-67
2022/01/18 05:42:04;;;;;;;167.48;9.57;;;;;;;;;;4952440;28;105818;-66
2022/01/18 05:44:30;;;;;;;153.65;11.00;;;;;;;;;;4956873;28;106040;-67
2022/01/18 05:46:56;;;;;;;121.10;8.77;;;;;;;;;;4960836;28;106808;-67
2022/01/18 05:49:23;;;;;;;99.15;8.45;;;;;;;;;;4968301;28;107747;-69
2022/01/18 05:51:50;;;;;;;196.77;12.23;;;;;;;;;;4951634;28;106349;-67
2022/01/18 05:54:16;;;;;;;98.13;8.82;;;;;;;;;;4961248;28;106037;-67
2022/01/18 05:56:42;;;;;;;127.05;11.82;;;;;;;;;;4942026;28;107172;-67
2022/01/18 05:59:10;;;;;;;124.05;11.10;;;;;;;;;;4948183;28;106495;-67
2022/01/18 06:01:46;;;;;;;120.03;9.80;;;;;;;;;;4947901;28;106937;-67
2022/01/18 06:06:50;;;;;;;127.95;9.02;;;;;;;;;;4947805;28;106313;-67
2022/01/18 06:07:01;;;;;;;161.70;9.68;;;;;;;;;;4947775;28;106311;-67
2022/01/18 06:09:27;;;;;;;79.85;7.32;;;;;;;;;;4929839;28;105962;-68
2022/01/18 06:11:53;;;;;;;90.90;6.97;;;;;;;;;;4950367;28;106873;-67
2022/01/18 06:14:20;;;;;;;136.95;9.13;;;;;;;;;;4947692;28;106233;-67
2022/01/18 06:16:46;;;;;;;81.38;7.20;;;;;;;;;;4946324;28;106339;-67
2022/01/18 06:19:13;;;;;;;104.60;6.90;;;;;;;;;;4952002;28;107660;-67
2022/01/18 06:21:39;;;;;;;100.22;8.27;;;;;;;;;;4954115;28;107210;-66
2022/01/18 06:24:08;;;;;;;192.65;10.88;;;;;;;;;;4955635;28;106671;-66
2022/01/18 06:26:55;;;;;;;119.85;9.27;;;;;;;;;;4953222;28;109365;-67
2022/01/18 06:29:22;;;;;;;99.55;8.93;;;;;;;;;;4942199;28;106251;-67
2022/01/18 06:31:49;;;;;;;170.55;12.68;;;;;;;;;;4953434;28;107067;-66
2022/01/18 06:34:15;;;;;;;91.95;11.38;;;;;;;;;;4956437;28;107279;-69
2022/01/18 06:36:42;;;;;;;108.05;11.52;;;;;;;;;;4953256;28;107266;-68
2022/01/18 06:39:08;;;;;;;144.35;13.68;;;;;;;;;;4946182;28;107006;-68
2022/01/18 06:41:35;;;;;;;112.15;11.48;;;;;;;;;;4952721;28;105855;-69
2022/01/18 06:44:01;;;;;;;100.15;11.23;;;;;;;;;;4951421;28;106347;-68
2022/01/18 06:46:28;;;;;;;151.93;11.60;;;;;;;;;;4953221;28;107436;-68
2022/01/18 06:48:54;;;;;;;81.75;9.45;;;;;;;;;;4943387;28;106155;-68
2022/01/18 06:51:21;;;;;;;124.22;10.77;;;;;;;;;;4953295;28;105856;-69
2022/01/18 06:53:48;;;;;;;72.63;10.73;;;;;;;;;;4950566;28;107310;-68
2022/01/18 06:56:16;;;;;;;88.70;9.98;;;;;;;;;;4954267;28;106365;-68
2022/01/18 06:58:43;;;;;;;110.55;9.93;;;;;;;;;;4952735;28;107333;-68
2022/01/18 07:01:10;;;;;;;65.72;9.25;;;;;;;;;;4953162;28;107726;-68
2022/01/18 07:03:37;;;;;;;108.53;11.00;;;;;;;;;;4953475;28;107141;-68
2022/01/18 07:06:03;;;;;;;76.18;8.73;;;;;;;;;;4952568;28;106819;-67
2022/01/18 07:08:30;;;;;;;109.72;9.75;;;;;;;;;;4952441;28;106706;-68
2022/01/18 07:10:57;;;;;;;95.97;8.95;;;;;;;;;;4952793;28;107063;-68
2022/01/18 07:13:24;;;;;;;73.00;9.13;;;;;;;;;;4952161;28;107280;-68
2022/01/18 07:15:51;;;;;;;86.65;9.07;;;;;;;;;;4936256;28;106780;-68
2022/01/18 07:18:17;;;;;;;111.60;8.75;;;;;;;;;;4949523;28;106116;-71
2022/01/18 07:20:45;;;;;;;73.28;7.75;;;;;;;;;;4952422;28;109107;-68
2022/01/18 07:23:13;;;;;;;73.57;7.65;;;;;;;;;;4954264;28;106352;-68
2022/01/18 07:25:45;;;;;;;47.50;6.25;;;;;;;;;;4954145;28;107629;-68
2022/01/18 07:28:12;;;;;;;39.10;6.50;;;;;;;;;;4946010;28;105967;-68
2022/01/18 07:30:39;;;;;;;35.75;6.00;;;;;;;;;;4950045;28;106088;-68
2022/01/18 07:33:06;;;;;;;39.30;6.43;;;;;;;;;;4944779;28;107816;-68
2022/01/18 07:35:34;;;;;;;56.42;6.45;;;;;;;;;;4949029;28;106137;-68
2022/01/18 07:38:06;;;;;;;57.10;8.27;;;;;;;;;;4950766;28;106184;-67
2022/01/18 07:40:33;;;;;;;68.30;9.32;;;;;;;;;;4953320;28;106597;-68
2022/01/18 07:43:01;;;;;;;60.85;7.97;;;;;;;;;;4950037;28;107184;-67
2022/01/18 07:45:28;;;;;;;128.15;9.18;;;;;;;;;;4945374;28;107420;-67
2022/01/18 07:47:54;;;;;;;87.78;8.18;;;;;;;;;;4941520;28;105829;-67
2022/01/18 07:50:21;;;;;;;45.72;6.68;;;;;;;;;;4948482;28;107439;-67
2022/01/18 07:52:48;;;;;;;99.72;8.27;;;;;;;;;;4948630;28;107667;-67
2022/01/18 07:55:15;;;;;;;107.22;8.20;;;;;;;;;;4950366;28;106508;-67
2022/01/18 07:57:42;;;;;;;90.20;7.90;;;;;;;;;;4948135;28;107601;-67
2022/01/18 08:00:10;;;;;;;112.05;9.40;;;;;;;;;;4938248;28;107652;-67
2022/01/18 08:02:40;;;;;;;94.93;10.73;;;;;;;;;;4960912;28;106041;-67
2022/01/18 08:05:08;;;;;;;133.57;10.77;;;;;;;;;;4933447;28;109208;-69
2022/01/18 08:07:35;;;;;;;44.38;7.78;;;;;;;;;;4953491;28;106581;-67
2022/01/18 08:10:03;;;;;;;71.03;11.45;;;;;;;;;;4934936;28;109598;-66
2022/01/18 08:12:29;;;;;;;119.80;9.73;;;;;;;;;;4949908;28;107040;-66
2022/01/18 08:15:03;;;;;;;123.95;9.35;;;;;;;;;;4953108;28;106534;-67
2022/01/18 08:17:49;;;;;;;70.20;9.50;;;;;;;;;;4953531;28;108731;-66
2022/01/18 08:20:16;;;;;;;119.32;9.43;;;;;;;;;;4950884;28;106880;-68
2022/01/18 08:22:43;;;;;;;112.05;8.52;;;;;;;;;;4954801;28;106646;-67
2022/01/18 08:25:10;;;;;;;102.38;8.00;;;;;;;;;;4952309;28;106794;-66
2022/01/18 08:27:38;;;;;;;93.43;8.63;;;;;;;;;;4953136;28;106315;-66
2022/01/18 08:30:05;;;;;;;104.03;8.00;;;;;;;;;;4952582;28;106047;-66
2022/01/18 08:32:32;;;;;;;80.45;7.53;;;;;;;;;;4951837;28;106563;-66
2022/01/18 08:34:58;;;;;;;77.88;8.25;;;;;;;;;;4933819;28;107317;-66
2022/01/18 08:37:24;;;;;;;124.60;9.77;;;;;;;;;;4954700;28;106630;-69
2022/01/18 08:39:51;;;;;;;175.00;8.73;;;;;;;;;;4949894;28;107411;-66
2022/01/18 08:42:18;;;;;;;140.45;11.45;;;;;;;;;;4941717;28;107253;-66
2022/01/18 08:44:45;;;;;;;110.80;8.32;;;;;;;;;;4934478;28;107330;-65
2022/01/18 08:47:12;;;;;;;132.57;9.90;;;;;;;;;;4948085;28;106867;-69
2022/01/18 08:49:39;;;;;;;94.28;8.25;;;;;;;;;;4929486;28;106671;-65
2022/01/18 08:52:05;;;;;;;109.70;11.20;;;;;;;;;;4950288;28;108271;-65
2022/01/18 08:54:32;;;;;;;163.07;10.15;;;;;;;;;;4944852;28;106353;-65
2022/01/18 08:56:58;;;;;;;79.50;8.07;;;;;;;;;;4939123;28;106314;-65
2022/01/18 08:59:25;;;;;;;221.70;12.13;;;;;;;;;;4948865;28;106749;-66
2022/01/18 09:01:51;;;;;;;197.27;12.73;;;;;;;;;;4946055;28;106033;-65
2022/01/18 09:04:19;;;;;;;124.20;9.20;;;;;;;;;;4949643;28;105966;-65
2022/01/18 09:06:48;;;;;;;142.25;9.10;;;;;;;;;;4953039;28;106885;-66
2022/01/18 09:09:16;;;;;;;83.28;8.98;;;;;;;;;;4952940;28;106705;-67
2022/01/18 09:11:45;;;;;;;233.20;12.43;;;;;;;;;;4946480;28;108121;-67
2022/01/18 09:14:12;;;;;;;187.15;12.57;;;;;;;;;;4946070;28;106928;-66
2022/01/18 09:16:38;;;;;;;121.20;9.38;;;;;;;;;;4952327;28;107427;-66
2022/01/18 09:19:05;;;;;;;120.47;9.88;;;;;;;;;;4941934;28;107960;-64
2022/01/18 09:21:33;;;;;;;151.13;9.60;;;;;;;;;;4940247;28;106813;-64
2022/01/18 09:24:03;;;;;;;156.80;8.98;;;;;;;;;;4944002;28;106673;-65
2022/01/18 09:26:29;;;;;;;;;;;;;;;;;;4936307;28;107768;-65
2022/01/18 09:28:55;;;;;;;155.63;10.55;;;;;;;;;;4934143;28;123807;-65
2022/01/18 09:31:22;;;;;;;108.55;8.32;;;;;;;;;;4950764;28;107373;-66
2022/01/18 09:33:48;;;;;;;178.38;10.90;;;;;;;;;;4951141;28;106832;-65
2022/01/18 09:36:15;;;;;;;215.63;11.20;;;;;;;;;;4927054;28;107701;-65
2022/01/18 09:38:41;;;;;;;123.70;10.40;;;;;;;;;;4949804;28;107679;-64
2022/01/18 09:41:11;;;;;;;188.38;10.32;;;;;;;;;;4948007;28;106554;-66
2022/01/18 09:43:38;;;;;;;148.65;9.27;;;;;;;;;;4951298;28;106858;-64
2022/01/18 09:46:05;;;;;;;57.20;8.05;;;;;;;;;;4944969;28;107384;-64
2022/01/18 09:48:32;;;;;;;76.07;7.68;;;;;;;;;;4932335;28;106842;-66
2022/01/18 09:50:59;;;;;;;28.67;5.50;;;;;;;;;;4950854;28;106611;-66
2022/01/18 09:53:26;;;;;;;78.72;7.03;;;;;;;;;;4945621;28;106147;-65
2022/01/18 09:55:53;;;;;;;96.50;7.13;;;;;;;;;;4949924;28;106503;-64
2022/01/18 09:58:20;;;;;;;45.25;4.95;;;;;;;;;;4947846;28;106611;-65
2022/01/18 10:00:48;;;;;;;79.38;6.78;;;;;;;;;;4944260;28;106716;-64
2022/01/18 10:03:25;;;;;;;140.30;10.00;;;;;;;;;;4956528;28;106790;-64
2022/01/18 10:05:52;;;;;;;84.03;6.82;;;;;;;;;;4950302;28;107632;-65
2022/01/18 10:08:18;;;;;;;169.88;8.68;;;;;;;;;;4955803;28;107331;-66
2022/01/18 10:10:46;;;;;;;97.95;7.95;;;;;;;;;;4963573;28;109094;-65
2022/01/18 10:13:26;;;;;;;176.38;9.80;;;;;;;;;;4946208;28;106455;-65
2022/01/18 10:16:05;;;;;;;109.65;9.82;;;;;;;;;;4958991;28;105971;-65
2022/01/18 10:18:36;;;;;;;95.03;8.43;;;;;;;;;;4942207;28;108922;-67
2022/01/18 10:21:05;;;;;;;69.38;8.55;;;;;;;;;;4964524;28;106516;-66
2022/01/18 10:23:31;;;;;;;71.20;9.45;;;;;;;;;;4958841;28;107030;-66
2022/01/18 10:26:13;;;;;;;106.38;10.60;;;;;;;;;;4932270;28;107856;-66
2022/01/18 10:28:40;;;;;;;109.82;10.70;;;;;;;;;;4959701;28;107119;-67
2022/01/18 10:31:24;;;;;;;142.65;11.45;;;;;;;;;;4960304;28;107395;-68
2022/01/18 10:34:10;;;;;;;97.07;10.82;;;;;;;;;;4952854;28;106857;-67
2022/01/18 10:36:50;;;;;;;77.28;11.95;;;;;;;;;;4938839;28;107555;-65
2022/01/18 10:39:19;;;;;;;81.47;11.05;;;;;;;;;;4919018;28;106905;-67
2022/01/18 10:41:47;;;;;;;102.13;10.80;;;;;;;;;;4924111;28;107591;-67
2022/01/18 10:44:15;;;;;;;109.15;11.35;;;;;;;;;;4947298;28;106700;-66
2022/01/18 10:46:43;;;;;;;127.82;11.63;;;;;;;;;;4942769;28;109598;-67
2022/01/18 10:49:11;;;;;;;120.57;13.43;;;;;;;;;;4944268;28;105868;-65
2022/01/18 10:51:39;;;;;;;166.68;13.80;;;;;;;;;;4944597;28;106415;-66
2022/01/18 10:54:07;;;;;;;103.18;10.35;;;;;;;;;;4941266;28;106226;-66
2022/01/18 10:56:41;;;;;;;88.30;10.77;;;;;;;;;;4929102;28;106882;-66
2022/01/18 10:59:08;;;;;;;109.25;12.65;;;;;;;;;;4943197;28;107336;-72
2022/01/18 11:01:34;;;;;;;116.20;11.55;;;;;;;;;;4948898;28;106243;-64
2022/01/18 11:04:07;;;;;;;120.68;12.32;;;;;;;;;;4954760;28;106244;-65
2022/01/18 11:06:34;;;;;;;145.70;13.50;;;;;;;;;;4959440;28;107164;-65
2022/01/18 11:09:11;;;;;;;74.55;11.98;;;;;;;;;;4938341;28;106396;-64
2022/01/18 11:11:44;;;;;;;89.85;13.07;;;;;;;;;;4960635;28;106656;-64
2022/01/18 11:14:12;;;;;;;97.32;12.80;;;;;;;;;;4953343;28;109670;-65
2022/01/18 11:16:42;;;;;;;79.50;11.73;;;;;;;;;;4966801;28;106987;-65
2022/01/18 11:19:28;;;;;;;84.47;10.75;;;;;;;;;;4952639;28;106075;-66
2022/01/18 11:21:59;;;;;;;73.07;9.75;;;;;;;;;;4954586;28;105613;-66
2022/01/18 11:24:25;;;;;;;139.10;12.63;;;;;;;;;;4946875;28;108075;-65
2022/01/18 11:26:52;;;;;;;66.40;10.57;;;;;;;;;;4956244;28;106907;-65
2022/01/18 11:29:19;;;;;;;66.05;10.80;;;;;;;;;;4964370;28;106075;-68
2022/01/18 11:31:49;;;;;;;86.50;10.80;;;;;;;;;;4962798;28;106683;-67
2022/01/18 11:34:29;;;;;;;69.05;9.48;;;;;;;;;;4952596;28;107781;-66
2022/01/18 11:36:59;;;;;;;51.47;9.52;;;;;;;;;;4950123;28;106226;-66
2022/01/18 11:39:28;;;;;;;48.22;9.00;;;;;;;;;;4957027;28;107100;-66
2022/01/18 11:42:05;;;;;;;67.50;9.32;;;;;;;;;;4958452;28;106568;-65
2022/01/18 11:44:32;;;;;;;50.22;9.07;;;;;;;;;;4946249;28;107940;-64
2022/01/18 11:46:58;;;;;;;77.40;10.55;;;;;;;;;;4940396;28;108808;-65
2022/01/18 11:49:28;;;;;;;61.30;8.55;;;;;;;;;;4952225;28;106075;-67
2022/01/18 11:51:58;;;;;;;36.00;8.80;;;;;;;;;;4953134;28;106141;-65
2022/01/18 11:54:33;;;;;;;105.35;10.38;;;;;;;;;;4950727;28;107058;-66
2022/01/18 11:57:00;;;;;;;54.17;9.18;;;;;;;;;;4948669;28;106138;-65
2022/01/18 11:59:28;;;;;;;97.55;10.90;;;;;;;;;;4942991;28;108574;-65
2022/01/18 12:01:55;;;;;;;114.28;11.60;;;;;;;;;;4941193;28;106826;-68
2022/01/18 12:04:38;;;;;;;68.63;11.50;;;;;;;;;;4946857;28;107535;-67
2022/01/18 12:07:04;;;;;;;96.60;10.93;;;;;;;;;;4946902;28;108058;-68
2022/01/18 12:09:43;;;;;;;86.28;9.55;;;;;;;;;;4948619;28;106429;-66
2022/01/18 12:12:28;;;;;;;83.63;9.82;;;;;;;;;;4949296;28;107815;-67
2022/01/18 12:14:55;;;;;;;37.70;7.88;;;;;;;;;;4948601;28;108698;-67
2022/01/18 12:17:21;;;;;;;62.42;7.93;;;;;;;;;;4924756;28;106542;-67
2022/01/18 12:19:47;;;;;;;49.15;7.25;;;;;;;;;;4947401;28;106341;-67
2022/01/18 12:22:14;;;;;;;58.05;9.38;;;;;;;;;;4941869;28;108211;-69
2022/01/18 12:24:46;;;;;;;85.70;9.13;;;;;;;;;;4952991;28;106698;-68
2022/01/18 12:27:29;;;;;;;115.85;10.85;;;;;;;;;;4948618;28;108091;-68
2022/01/18 12:30:38;;;;;;;86.00;11.23;;;;;;;;;;4948297;28;106231;-66
2022/01/18 12:33:18;;;;;;;74.22;11.88;;;;;;;;;;4930348;28;106191;-64
2022/01/18 12:35:45;;;;;;;53.45;9.52;;;;;;;;;;4929933;28;107854;-66
2022/01/18 12:38:30;;;;;;;120.95;13.27;;;;;;;;;;4949023;28;106362;-65
2022/01/18 12:40:56;;;;;;;108.45;12.73;;;;;;;;;;4949883;28;106251;-65
2022/01/18 12:46:14;;;;;;;70.80;13.07;;;;;;;;;;4929707;28;107066;-65
2022/01/18 12:48:41;;;;;;;114.25;14.70;;;;;;;;;;4947381;28;106736;-66
2022/01/18 12:51:09;;;;;;;87.97;14.35;;;;;;;;;;4949858;28;105969;-66
2022/01/18 12:53:39;;;;;;;132.95;18.33;;;;;;;;;;4948843;28;107113;-65
2022/01/18 12:56:06;;;;;;;111.97;19.50;;;;;;;;;;4948881;28;106802;-65
2022/01/18 12:58:38;;;;;;;110.88;19.30;;;;;;;;;;4946614;28;105974;-65
2022/01/18 13:01:06;;;;;;;119.28;23.10;;;;;;;;;;4947409;28;106574;-65
2022/01/18 13:03:36;;;;;;;111.63;20.25;;;;;;;;;;4945331;28;108637;-65
2022/01/18 13:06:03;;;;;;;112.93;24.60;;;;;;;;;;4948345;28;106348;-65
2022/01/18 13:08:39;;;;;;;127.40;24.73;;;;;;;;;;4947756;28;107684;-65
2022/01/18 13:11:05;;;;;;;116.78;24.65;;;;;;;;;;4949889;28;107128;-65
2022/01/18 13:13:33;;;;;;;126.10;26.30;;;;;;;;;;4948698;28;106354;-67
2022/01/18 13:22:52;;;;;;;92.55;21.83;;;;;;;;;;4946225;28;106795;-66
2022/01/18 13:27:27;;;;;;;100.50;26.02;;;;;;;;;;4946106;28;106486;-66
2022/01/18 13:30:04;;;;;;;106.68;27.08;;;;;;;;;;4936688;28;110021;-65
2022/01/18 13:32:33;;;;;;;102.68;25.92;;;;;;;;;;4946468;28;107499;-65
2022/01/18 13:35:02;;;;;;;96.68;22.40;;;;;;;;;;4951809;28;107750;-65
2022/01/18 13:37:30;;;;;;;84.77;22.53;;;;;;;;;;4947653;28;106708;-65
2022/01/18 13:39:59;;;;;;;80.90;22.38;;;;;;;;;;4947474;28;107395;-65
2022/01/18 13:42:31;;;;;;;79.35;19.90;;;;;;;;;;4949289;28;106642;-66
2022/01/18 13:45:18;;;;;;;79.43;20.20;;;;;;;;;;4926680;28;107599;-66
2022/01/18 13:47:46;;;;;;;79.53;22.02;;;;;;;;;;4938072;28;106659;-66
2022/01/18 13:50:32;;;;;;;86.53;21.65;;;;;;;;;;4917647;28;107426;-70
2022/01/18 13:52:59;;;;;;;74.60;18.48;;;;;;;;;;4941577;28;107997;-65
2022/01/18 13:55:26;;;;;;;75.55;17.83;;;;;;;;;;4945144;28;106488;-66
2022/01/18 13:57:56;;;;;;;72.78;18.02;;;;;;;;;;4950324;28;107536;-66
2022/01/18 14:00:24;;;;;;;65.65;17.80;;;;;;;;;;4942974;28;108682;-70
2022/01/18 14:02:50;;;;;;;71.50;18.05;;;;;;;;;;4946870;28;106775;-66
2022/01/18 14:05:20;;;;;;;75.85;18.33;;;;;;;;;;4942130;28;108209;-66
2022/01/18 14:07:47;;;;;;;59.83;16.08;;;;;;;;;;4947375;28;105990;-66
2022/01/18 14:10:14;;;;;;;59.67;16.75;;;;;;;;;;4942496;28;106326;-67
2022/01/18 14:12:40;;;;;;;72.10;16.75;;;;;;;;;;4947004;28;106738;-66
2022/01/18 14:15:07;;;;;;;70.32;19.10;;;;;;;;;;4946926;28;106066;-69
2022/01/18 14:17:33;;;;;;;76.47;19.63;;;;;;;;;;4950029;28;106764;-66
2022/01/18 14:20:05;;;;;;;81.75;19.50;;;;;;;;;;4948043;28;106296;-66
2022/01/18 14:22:34;;;;;;;82.28;19.38;;;;;;;;;;4946544;28;106902;-66
2022/01/18 14:25:04;;;;;;;70.70;18.75;;;;;;;;;;4938781;28;106619;-65
2022/01/18 14:27:33;;;;;;;53.95;15.70;;;;;;;;;;4938289;28;108249;-66
2022/01/18 14:30:06;;;;;;;64.70;16.67;;;;;;;;;;4943916;28;106814;-66
2022/01/18 14:32:34;;;;;;;66.65;16.08;;;;;;;;;;4937000;28;108459;-66
2022/01/18 14:35:03;;;;;;;69.93;18.05;;;;;;;;;;4947403;28;106922;-65
2022/01/18 14:37:33;;;;;;;68.18;17.25;;;;;;;;;;4946646;28;107219;-65
2022/01/18 14:40:02;;;;;;;70.47;16.80;;;;;;;;;;4951939;28;106401;-66
2022/01/18 14:42:34;;;;;;;69.65;17.55;;;;;;;;;;4946861;28;107127;-66
2022/01/18 14:45:08;;;;;;;59.10;18.25;;;;;;;;;;4946209;28;107425;-65
2022/01/18 14:47:34;;;;;;;66.20;17.05;;;;;;;;;;4947171;28;107334;-65
2022/01/18 14:50:05;;;;;;;59.80;16.83;;;;;;;;;;4946119;28;107207;-65
2022/01/18 14:52:32;;;;;;;71.85;18.33;;;;;;;;;;4949394;28;107102;-65
2022/01/18 14:54:59;;;;;;;76.65;18.13;;;;;;;;;;4948378;28;106196;-66
2022/01/18 14:57:26;;;;;;;72.03;17.77;;;;;;;;;;4950929;28;106886;-65
2022/01/18 14:59:57;;;;;;;79.20;18.85;;;;;;;;;;4943872;28;107244;-65
2022/01/18 15:02:24;;;;;;;77.15;18.50;;;;;;;;;;4951837;28;106275;-65
2022/01/18 15:04:51;;;;;;;72.40;18.95;;;;;;;;;;4953184;28;107552;-65
2022/01/18 15:07:17;;;;;;;61.63;18.67;;;;;;;;;;4944907;28;107841;-65
2022/01/18 15:09:44;;;;;;;64.50;18.48;;;;;;;;;;4944480;28;106973;-65
2022/01/18 15:12:10;;;;;;;70.40;20.25;;;;;;;;;;4945265;28;107765;-64
2022/01/18 15:14:36;;;;;;;73.40;19.77;;;;;;;;;;4926945;28;108392;-64
2022/01/18 15:17:05;;;;;;;71.63;20.75;;;;;;;;;;4948818;28;106257;-64
2022/01/18 15:19:33;;;;;;;71.45;19.65;;;;;;;;;;4949969;28;106539;-64